Погода Бабекна неделю

Нахичеванский район, Азербайджан

31 августа-06 сентября
  • 31августа
    Сегодня
    +17°
    +29°
    Ясно и безоблачно
    ВремяПогодаТемператураВлажностьДавлениеВетер, м/сВероятность осадков
    01:00Практически безоблачно+21°C53 %685 мм4.5 м/с14 %
    04:00Ясно и безоблачно+20°C58 %685 мм3.9 м/с17 %
    07:00Ясно и безоблачно+17°C64 %685 мм3.2 м/с9 %
    10:00Ясно и безоблачно+23°C45 %686 мм3.8 м/с10 %
    13:00Ясно и безоблачно+27°C38 %685 мм3.5 м/с14 %
    16:00Ясно и безоблачно+28°C33 %684 мм4.1 м/с21 %
    19:00Ясно и безоблачно+24°C40 %684 мм5.0 м/с23 %
    22:00Ясно и безоблачно+22°C49 %685 мм6.4 м/с11 %
  • 01сентября
    Вторник
    +17°
    +29°
    Ясно и безоблачно
    ВремяПогодаТемператураВлажностьДавлениеВетер, м/сВероятность осадков
    01:00Ясно и безоблачно+20°C54 %686 мм4.4 м/с3 %
    04:00Практически безоблачно+19°C59 %686 мм3.6 м/с2 %
    07:00Практически безоблачно+17°C63 %686 мм3.1 м/с5 %
    10:00Ясно и безоблачно+23°C47 %687 мм3.8 м/с12 %
    13:00Ясно и безоблачно+26°C37 %686 мм3.1 м/с20 %
    16:00Небольшая облачность+29°C29 %686 мм3.7 м/с31 %
    19:00Практически безоблачно+26°C35 %686 мм4.9 м/с45 %
    22:00Ясно и безоблачно+23°C49 %687 мм6.0 м/с27 %
  • 02сентября
    Среда
    +17°
    +29°
    Ясно и безоблачно
    ВремяПогодаТемператураВлажностьДавлениеВетер, м/сВероятность осадков
    01:00Ясно и безоблачно+21°C56 %687 мм4.2 м/с10 %
    04:00Ясно и безоблачно+20°C61 %687 мм3.5 м/с3 %
    07:00Ясно и безоблачно+18°C66 %687 мм3.0 м/с2 %
    10:00Ясно и безоблачно+24°C47 %688 мм3.6 м/с3 %
    13:00Ясно и безоблачно+26°C37 %687 мм2.6 м/с10 %
    16:00Ясно и безоблачно+29°C30 %686 мм3.3 м/с16 %
    19:00Ясно и безоблачно+27°C32 %686 мм4.8 м/с13 %
    22:00Ясно и безоблачно+23°C46 %688 мм6.4 м/с4 %
  • 03сентября
    Четверг
    +17°
    +31°
    Ясно и безоблачно
    ВремяПогодаТемператураВлажностьДавлениеВетер, м/сВероятность осадков
    01:00Ясно и безоблачно+22°C49 %687 мм4.4 м/с2 %
    04:00Ясно и безоблачно+20°C51 %687 мм3.7 м/с2 %
    07:00Ясно и безоблачно+18°C57 %687 мм3.0 м/с2 %
    10:00Ясно и безоблачно+24°C42 %689 мм3.8 м/с2 %
    13:00Ясно и безоблачно+28°C30 %687 мм2.9 м/с2 %
    16:00Ясно и безоблачно+31°C25 %686 мм3.8 м/с2 %
    19:00Ясно и безоблачно+27°C32 %685 мм5.4 м/с2 %
    22:00Ясно и безоблачно+24°C42 %686 мм6.6 м/с2 %
  • 04сентября
    Пятница
    +18°
    +33°
    Ясно и безоблачно
    ВремяПогодаТемператураВлажностьДавлениеВетер, м/сВероятность осадков
    01:00Ясно и безоблачно+22°C45 %685 мм4.5 м/с2 %
    04:00Ясно и безоблачно+20°C45 %685 мм3.8 м/с2 %
    07:00Ясно и безоблачно+18°C49 %685 мм3.2 м/с2 %
    10:00Ясно и безоблачно+25°C38 %686 мм4.2 м/с2 %
    13:00Ясно и безоблачно+29°C26 %685 мм3.5 м/с2 %
    16:00Ясно и безоблачно+32°C20 %683 мм4.3 м/с2 %
    19:00Ясно и безоблачно+29°C27 %683 мм5.2 м/с2 %
    22:00Ясно и безоблачно+26°C37 %684 мм6.5 м/с2 %
  • 05сентября
    Суббота
    +19°
    +34°
    Ясно и безоблачно
    ВремяПогодаТемператураВлажностьДавлениеВетер, м/сВероятность осадков
    04:00Ясно и безоблачно+21°C45 %684 мм3.7 м/с2 %
    10:00Ясно и безоблачно+26°C40 %687 мм3.1 м/с2 %
    16:00Ясно и безоблачно+33°C20 %685 мм2.5 м/с4 %
    22:00Практически безоблачно+26°C39 %685 мм6.2 м/с15 %
  • 06сентября
    Воскресенье
    +19°
    +33°
    Практически безоблачно
    ВремяПогодаТемператураВлажностьДавлениеВетер, м/сВероятность осадков
    04:00Практически безоблачно+22°C49 %684 мм3.8 м/с5 %
    10:00Ясно и безоблачно+26°C42 %688 мм1.5 м/с7 %
    16:00Практически безоблачно+33°C24 %687 мм2.4 м/с19 %
    22:00Практически безоблачно+25°C44 %686 мм2.3 м/с29 %
Мы используем cookies
Соглашаюсь